createdAt,value
2023-01-30T00:08:29.074Z,91.04
2023-01-30T00:18:50.760Z,90.20
2023-01-30T00:29:12.152Z,90.61
2023-01-30T00:39:33.494Z,90.99
2023-01-30T00:49:54.896Z,90.93
2023-01-30T01:00:17.935Z,91.95
2023-01-30T01:10:39.368Z,92.01
2023-01-30T01:21:00.748Z,91.45
2023-01-30T01:31:24.120Z,91.16
2023-01-30T01:41:45.654Z,92.70
2023-01-30T01:52:12.836Z,94.35
2023-01-30T02:02:34.614Z,95.86
2023-01-30T02:12:56.136Z,97.17
2023-01-30T02:23:29.774Z,97.19
2023-01-30T02:34:09.349Z,98.16
2023-01-30T02:44:34.541Z,98.25
2023-01-30T02:54:56.020Z,98.69
2023-01-30T03:05:28.063Z,98.66
2023-01-30T03:15:49.424Z,98.51
2023-01-30T03:26:14.259Z,98.65
2023-01-30T03:36:35.732Z,99.33
2023-01-30T03:46:57.331Z,99.07
2023-01-30T03:57:19.384Z,98.21
2023-01-30T04:07:40.735Z,97.38
2023-01-30T04:18:02.098Z,95.43
2023-01-30T04:28:23.499Z,96.91
2023-01-30T04:38:44.925Z,94.25
2023-01-30T04:49:06.279Z,93.11
2023-01-30T04:59:27.646Z,91.26
2023-01-30T05:09:48.999Z,90.98
2023-01-30T05:20:10.692Z,90.75
2023-01-30T05:30:32.129Z,90.88
2023-01-30T05:41:00.631Z,90.37
2023-01-30T05:51:23.276Z,89.04
2023-01-30T06:01:44.685Z,89.22
2023-01-30T06:12:06.749Z,88.16
2023-01-30T06:22:28.092Z,86.96
2023-01-30T06:32:52.602Z,87.77
2023-01-30T06:43:14.286Z,86.11
2023-01-30T06:53:35.748Z,85.68
2023-01-30T07:03:57.127Z,84.83
2023-01-30T07:14:18.487Z,85.52
2023-01-30T07:24:40.034Z,84.77
2023-01-30T07:35:02.062Z,83.52
2023-01-30T07:45:24.340Z,83.30
2023-01-30T07:55:45.750Z,82.70
2023-01-30T08:06:07.560Z,82.64
2023-01-30T08:16:29.042Z,82.74
2023-01-30T08:26:50.771Z,82.81
2023-01-30T08:37:12.137Z,81.99
2023-01-30T08:47:35.470Z,81.29
2023-01-30T08:57:57.071Z,81.51
2023-01-30T09:08:18.440Z,82.62
2023-01-30T09:18:41.507Z,83.47
2023-01-30T09:29:02.885Z,83.69
2023-01-30T09:39:24.325Z,83.90
2023-01-30T09:50:06.299Z,84.98
2023-01-30T10:00:27.680Z,84.08
2023-01-30T10:10:55.108Z,84.19
2023-01-30T10:21:25.319Z,84.59
2023-01-30T10:31:48.876Z,85.30
2023-01-30T10:42:14.818Z,89.17
2023-01-30T10:52:48.440Z,87.52
2023-01-30T11:03:15.467Z,86.26
2023-01-30T11:13:37.523Z,85.71
2023-01-30T11:24:04.086Z,84.55
2023-01-30T11:34:25.730Z,82.59
2023-01-30T11:44:47.117Z,82.00
2023-01-30T11:55:11.516Z,81.10
2023-01-30T12:05:36.803Z,80.01
2023-01-30T12:16:04.299Z,80.17
2023-01-30T12:26:47.093Z,84.66
2023-01-30T12:37:18.191Z,88.97
2023-01-30T12:47:45.690Z,90.61
2023-01-30T12:58:07.035Z,88.66
2023-01-30T13:08:28.545Z,87.88
2023-01-30T13:18:54.123Z,84.47
2023-01-30T13:29:20.527Z,82.90
2023-01-30T13:39:48.683Z,81.84
2023-01-30T13:50:20.050Z,81.11
2023-01-30T14:00:51.725Z,80.57
2023-01-30T14:11:33.037Z,81.06
2023-01-30T14:21:56.624Z,80.30
2023-01-30T14:32:21.166Z,79.89
2023-01-30T14:42:44.207Z,80.32
2023-01-30T14:53:13.184Z,80.23
2023-01-30T15:03:39.447Z,79.86
2023-01-30T15:14:04.418Z,79.17
2023-01-30T15:24:34.875Z,78.58
2023-01-30T15:35:00.576Z,78.65
2023-01-30T15:45:34.351Z,79.33
2023-01-30T15:55:55.877Z,79.05
2023-01-30T16:06:33.746Z,79.55
2023-01-30T16:17:01.852Z,80.58
2023-01-30T16:27:26.338Z,81.32
2023-01-30T16:37:47.868Z,83.71
2023-01-30T16:48:19.318Z,82.34
2023-01-30T16:58:44.661Z,82.04
2023-01-30T17:09:25.950Z,81.58
2023-01-30T17:19:48.617Z,79.90
2023-01-30T17:30:17.462Z,81.17
2023-01-30T17:40:39.006Z,81.88
2023-01-30T17:51:00.372Z,82.20
2023-01-30T18:01:21.764Z,82.81
2023-01-30T18:11:43.421Z,82.13
2023-01-30T18:22:04.781Z,81.62
2023-01-30T18:32:26.167Z,80.06
2023-01-30T18:42:47.708Z,78.93
2023-01-30T18:53:09.135Z,78.88
2023-01-30T19:03:30.709Z,78.77
2023-01-30T19:13:53.449Z,78.68
2023-01-30T19:24:16.003Z,79.81
2023-01-30T19:34:38.431Z,80.87
2023-01-30T19:45:00.066Z,82.29
2023-01-30T19:55:21.552Z,82.78
2023-01-30T20:05:43.468Z,83.25
2023-01-30T20:16:09.592Z,83.35
2023-01-30T20:26:35.008Z,83.41
2023-01-30T20:36:56.641Z,84.07
2023-01-30T20:47:18.066Z,82.48
2023-01-30T20:57:41.899Z,81.26
2023-01-30T21:08:03.397Z,80.28
2023-01-30T21:18:24.741Z,79.24
2023-01-30T21:28:46.209Z,83.39
2023-01-30T21:39:26.506Z,83.70
2023-01-30T21:49:47.845Z,84.17
2023-01-30T22:00:09.599Z,82.51
2023-01-30T22:10:30.962Z,80.86
2023-01-30T22:20:52.781Z,81.05
2023-01-30T22:31:15.476Z,81.50
2023-01-30T22:41:37.145Z,82.83
2023-01-30T22:51:58.573Z,85.45
2023-01-30T23:02:19.986Z,86.55
2023-01-30T23:13:00.136Z,87.15
2023-01-30T23:23:21.488Z,87.02
2023-01-30T23:33:42.896Z,88.16
2023-01-30T23:44:04.444Z,88.56
2023-01-30T23:54:25.828Z,88.41
